Position Fahrer Laps Zeit Diff Beste Runde Fahrzeug Status Gesamt Bonuspunkte Strafpunkte
1 Lukas Müller 17 25:34.876 - 1:29.665 Porsche 991.2 GT3 Cup Beendet 23,21 0 0
2 Felix Arndt 17 25:55.290 0:20.414 1:29.937 Porsche 991.2 GT3 Cup Beendet 19,64 0 0
3 Daniel Ehrlich 17 25:58.357 0:23.481 1:30.972 Porsche 991.2 GT3 Cup Beendet 16,07 0 0
4 Adi Stettler 17 26:07.005 0:32.129 1:30.730 Porsche 991.2 GT3 Cup Beendet 12,5 0 0
5 Dennis Hillmann 17 26:14.959 0:40.083 1:31.167 Porsche 991.2 GT3 Cup Beendet 8,93 0 0
6 Endika Vázquez 17 26:19.448 0:44.572 1:32.167 Porsche 991.2 GT3 Cup Beendet 5,36 0 0
7 Florian Becker 16 25:48.407 -1L 1:34.637 Porsche 718 Cayman GT4 Clubsport MR Beendet 23,61 0 0
8 Christian Nesmiyan 16 25:57.637 -1L 1:35.642 Porsche 718 Cayman GT4 Clubsport MR Beendet 20,83 0 0
9 Gabriel Fürstner 16 26:05.206 -1L 1:35.400 Porsche 718 Cayman GT4 Clubsport MR Beendet 18,06 0 0
10 Stefan Dressel 16 26:05.586 -1L 1:35.872 Porsche 718 Cayman GT4 Clubsport MR Beendet 15,28 0 0
11 Ferenc Nagy 16 26:13.406 -1L 1:36.037 Porsche 718 Cayman GT4 Clubsport MR Beendet 12,5 0 0
12 Daniel Dressel 16 26:14.360 -1L 1:34.825 Porsche 718 Cayman GT4 Clubsport MR Beendet 9,72 0 0
13 Dennis Grzelak 16 26:42.836 -1L 1:37.782 Porsche 718 Cayman GT4 Clubsport MR Beendet 6,94 0 0
14 Dennis Manojlovic 16 26:46.953 -1L 1:35.322 Porsche 718 Cayman GT4 Clubsport MR Beendet 4,17 0 0
15 Goe Stettler 15 25:39.839 -2L 1:30.222 Porsche 991.2 GT3 Cup Beendet 1,79 0 0
16 Ralf Waldek 14 23:50.362 -3L 1:35.600 Porsche 718 Cayman GT4 Clubsport MR Beendet 1,39 0 0

Rennverlauf

Die schnellsten 5 pro Runde

Runde 1

Pos Rennpos Fahrer Zeit Diff
1 1 Lukas Müller 1:30.182 -
2 2 Felix Arndt 1:31.159 0:00.977
3 3 Adi Stettler 1:32.177 0:01.995
4 4 Daniel Ehrlich 1:32.907 0:02.725
5 5 Dennis Hillmann 1:33.501 0:03.319

Runde 2

Pos Rennpos Fahrer Zeit Diff
1 1 Lukas Müller 1:29.802 -
2 16 Goe Stettler 1:30.595 0:00.793
3 2 Felix Arndt 1:31.390 0:01.588
4 4 Daniel Ehrlich 1:31.592 0:01.790
5 5 Dennis Hillmann 1:31.632 0:01.830

Runde 3

Pos Rennpos Fahrer Zeit Diff
1 1 Lukas Müller 1:29.665 -
2 2 Felix Arndt 1:30.550 0:00.885
3 16 Goe Stettler 1:30.677 0:01.012
4 3 Adi Stettler 1:30.915 0:01.250
5 4 Daniel Ehrlich 1:31.072 0:01.407

Runde 4

Pos Rennpos Fahrer Zeit Diff
1 1 Lukas Müller 1:29.880 -
2 2 Felix Arndt 1:29.937 0:00.057
3 16 Goe Stettler 1:30.575 0:00.695
4 3 Adi Stettler 1:30.752 0:00.872
5 4 Daniel Ehrlich 1:30.972 0:01.092

Runde 5

Pos Rennpos Fahrer Zeit Diff
1 1 Lukas Müller 1:30.032 -
2 16 Goe Stettler 1:30.250 0:00.218
3 2 Felix Arndt 1:30.270 0:00.238
4 3 Adi Stettler 1:30.730 0:00.698
5 4 Daniel Ehrlich 1:31.395 0:01.363

Runde 6

Pos Rennpos Fahrer Zeit Diff
1 1 Lukas Müller 1:29.892 -
2 2 Felix Arndt 1:30.025 0:00.133
3 16 Goe Stettler 1:30.222 0:00.330
4 4 Daniel Ehrlich 1:31.102 0:01.210
5 5 Dennis Hillmann 1:31.832 0:01.940

Runde 7

Pos Rennpos Fahrer Zeit Diff
1 1 Lukas Müller 1:30.205 -
2 5 Dennis Hillmann 1:31.272 0:01.067
3 3 Adi Stettler 1:31.752 0:01.547
4 2 Felix Arndt 1:31.850 0:01.645
5 4 Daniel Ehrlich 1:31.922 0:01.717

Runde 8

Pos Rennpos Fahrer Zeit Diff
1 1 Lukas Müller 1:29.935 -
2 2 Felix Arndt 1:30.060 0:00.125
3 16 Goe Stettler 1:31.365 0:01.430
4 4 Daniel Ehrlich 1:31.677 0:01.742
5 3 Adi Stettler 1:31.820 0:01.885

Runde 9

Pos Rennpos Fahrer Zeit Diff
1 1 Lukas Müller 1:29.745 -
2 16 Goe Stettler 1:30.270 0:00.525
3 2 Adi Stettler 1:31.287 0:01.542
4 5 Dennis Hillmann 1:31.422 0:01.677
5 3 Daniel Ehrlich 1:31.660 0:01.915

Runde 10

Pos Rennpos Fahrer Zeit Diff
1 1 Lukas Müller 1:30.207 -
2 16 Goe Stettler 1:30.987 0:00.780
3 3 Felix Arndt 1:31.125 0:00.918
4 2 Daniel Ehrlich 1:31.395 0:01.188
5 6 Endika Vázquez 1:32.717 0:02.510

Runde 11

Pos Rennpos Fahrer Zeit Diff
1 1 Lukas Müller 1:29.875 -
2 3 Felix Arndt 1:31.460 0:01.585
3 2 Daniel Ehrlich 1:31.477 0:01.602
4 4 Dennis Hillmann 1:31.922 0:02.047
5 5 Adi Stettler 1:32.032 0:02.157

Runde 12

Pos Rennpos Fahrer Zeit Diff
1 2 Felix Arndt 1:30.897 -
2 16 Goe Stettler 1:31.310 0:00.413
3 3 Daniel Ehrlich 1:31.685 0:00.788
4 4 Dennis Hillmann 1:31.685 0:00.788
5 5 Adi Stettler 1:31.690 0:00.793

Runde 13

Pos Rennpos Fahrer Zeit Diff
1 2 Felix Arndt 1:30.515 -
2 3 Daniel Ehrlich 1:31.235 0:00.720
3 1 Lukas Müller 1:31.397 0:00.882
4 16 Goe Stettler 1:31.485 0:00.970
5 4 Dennis Hillmann 1:31.627 0:01.112

Runde 14

Pos Rennpos Fahrer Zeit Diff
1 1 Lukas Müller 1:31.105 -
2 4 Adi Stettler 1:31.252 0:00.147
3 2 Felix Arndt 1:31.440 0:00.335
4 16 Goe Stettler 1:31.440 0:00.335
5 6 Endika Vázquez 1:32.167 0:01.062

Runde 15

Pos Rennpos Fahrer Zeit Diff
1 15 Goe Stettler 1:30.750 -
2 1 Lukas Müller 1:30.915 0:00.165
3 3 Daniel Ehrlich 1:31.627 0:00.877
4 2 Felix Arndt 1:31.847 0:01.097
5 5 Dennis Hillmann 1:31.940 0:01.190

Runde 16

Pos Rennpos Fahrer Zeit Diff
1 1 Lukas Müller 1:29.802 -
2 2 Felix Arndt 1:31.445 0:01.643
3 5 Dennis Hillmann 1:32.242 0:02.440
4 3 Daniel Ehrlich 1:33.030 0:03.228
5 6 Endika Vázquez 1:33.137 0:03.335

Runde 17

Pos Rennpos Fahrer Zeit Diff
1 1 Lukas Müller 1:30.510 -
2 3 Daniel Ehrlich 1:31.127 0:00.617
3 2 Felix Arndt 1:31.625 0:01.115
4 4 Adi Stettler 1:33.910 0:03.400
5 6 Endika Vázquez 1:34.290 0:03.780

SERVER

0 / 61
virtualracing.org #1 GTM
Training 1Lime Rock Park -- Uphill Chicane
0 / 81
virtualracing.org #3 FS
Training 1Oulton Park International NC
0 / 81
virtualracing.org #4 LSM
Training 1Spa-Francorchamps Endurance
0 / 34
virtualracing.org #5 VRF1S
Training 1Zandvoort 2021
0 / 34
virtualracing.org #6 VRCS
Training 1Magny-Cours
0 / 81
virtualracing.org #P1 BTCC
Training 1Oulton Park Fosters
0 / 81
virtualracing.org #P2 CA
Training 1Silverstone Endurance
0 / 34
virtualracing.org #P3 Mini
Training 1Silverstone Historic Chicane
0 / 33
virtualracing.org #P4 IR18
Training 1World Wide Technology Raceway Road Course
0/31
virtualracing.org#4 GTC Training Standard
TrainingDaytona International Speedway - Road Course
0/31
virtualracing.org#5 GTC Training A
TrainingDaytona International Speedway - Road Course
0/24
virtualracing.org#30 ALT Training
TrainingFuji Speedway - Grand Prix Circuit 1968
0/32
virtualracing.org#33 GTC Starttest
TrainingDaytona International Speedway - Road Course